Forside
METAR-TAF:

METAR-TAF

Lufthavne :

Indianapolis, Indiana, USA

Breddekreds: 39-43-30N, længdekreds: 086-16-55W, højde: 243 m

Aktuelle vejr

Denne rapport blev lavet for 15 minutter siden, kl. 10:54 UTC
Vind stille
Temperatur 21°C
Fugtighed 88%
Tryk 1015 hPa
Sigt: 16.1 km
Nogle få skyer i en højde af 6500 ft
Spredte skyer i en højde af 15000 ft

METAR: KIND 191054Z 00000KT 10SM FEW065 SCT150 21/19 A2998 RMK AO2 SLP145 T02110194

Tid: 07:09 (11:09 UTC)

Vejrudsigter

Denne rapport blev lavet for 3 timer og 1 minutter siden, kl. 08:08 UTC
Foreløbig gælder fra 19 på 08 UTC til 20 på 12 UTC
Vind 6 kt fra nordøst
Sigt: 10 km
skyfri
Fra 19 på 1900 UTC
Vind 5 kt fra sydsydvest
Sigt: 10 km
Spredte skyer i en højde af 20000 ft

TAF: KIND 190808Z 1908/2012 04006KT P6SM SKC FM191900 21005KT P6SM SCT200

Vejrobservationer og prognoser fra mere end 4000 lufthavne (METAR og TAF).

De gule og røde prikker repræsenterer de meteorologiske stationer.

Flyt musen over at se navnet på stationen.

Så klik over at se vejr observationer og prognoser.

At skifte det kort: Klik på de grønne knapper med et sort kors for at zoome ind; på den grønne knap med en bindestreg for at zoome ud; eller på de grønne pile for tilstødende kort.


METAR-TAF: